sensor_id;sensor_type;location;lat;lon;timestamp;P1;durP1;ratioP1;P2;durP2;ratioP2
71814;SDS011;59659;41.520;23.794;2022-07-23T00:00:28;18.53;;;8.50;;
71814;SDS011;59659;41.520;23.794;2022-07-23T00:01:48;14.67;;;7.93;;
71814;SDS011;59659;41.520;23.794;2022-07-23T00:02:59;21.30;;;8.70;;
71814;SDS011;59659;41.520;23.794;2022-07-23T00:04:11;14.30;;;9.27;;
71814;SDS011;59659;41.520;23.794;2022-07-23T00:05:23;16.10;;;8.20;;
71814;SDS011;59659;41.520;23.794;2022-07-23T00:06:34;12.70;;;6.03;;
71814;SDS011;59659;41.520;23.794;2022-07-23T00:07:46;13.40;;;6.43;;
71814;SDS011;59659;41.520;23.794;2022-07-23T00:08:57;9.43;;;5.40;;
71814;SDS011;59659;41.520;23.794;2022-07-23T00:10:09;12.27;;;7.20;;
71814;SDS011;59659;41.520;23.794;2022-07-23T00:11:21;12.13;;;6.50;;
71814;SDS011;59659;41.520;23.794;2022-07-23T00:12:33;14.10;;;6.80;;
71814;SDS011;59659;41.520;23.794;2022-07-23T00:13:44;13.20;;;6.53;;
71814;SDS011;59659;41.520;23.794;2022-07-23T00:14:56;17.67;;;7.53;;
71814;SDS011;59659;41.520;23.794;2022-07-23T00:16:08;15.33;;;7.13;;
71814;SDS011;59659;41.520;23.794;2022-07-23T00:17:19;10.93;;;6.80;;
71814;SDS011;59659;41.520;23.794;2022-07-23T00:18:31;14.17;;;7.30;;
71814;SDS011;59659;41.520;23.794;2022-07-23T00:19:43;9.27;;;5.03;;
71814;SDS011;59659;41.520;23.794;2022-07-23T00:20:54;7.27;;;5.07;;
71814;SDS011;59659;41.520;23.794;2022-07-23T00:22:06;9.23;;;5.13;;
71814;SDS011;59659;41.520;23.794;2022-07-23T00:23:17;8.63;;;5.07;;
71814;SDS011;59659;41.520;23.794;2022-07-23T00:24:29;11.27;;;5.90;;
71814;SDS011;59659;41.520;23.794;2022-07-23T00:25:40;11.83;;;5.67;;
71814;SDS011;59659;41.520;23.794;2022-07-23T00:26:52;15.93;;;5.70;;
71814;SDS011;59659;41.520;23.794;2022-07-23T00:28:04;10.77;;;5.47;;
71814;SDS011;59659;41.520;23.794;2022-07-23T00:29:15;11.13;;;5.97;;
71814;SDS011;59659;41.520;23.794;2022-07-23T00:30:27;10.57;;;4.30;;
71814;SDS011;59659;41.520;23.794;2022-07-23T00:31:41;10.03;;;5.23;;
71814;SDS011;59659;41.520;23.794;2022-07-23T00:32:59;8.70;;;5.50;;
71814;SDS011;59659;41.520;23.794;2022-07-23T00:34:11;10.77;;;4.63;;
71814;SDS011;59659;41.520;23.794;2022-07-23T00:35:23;9.17;;;5.50;;
71814;SDS011;59659;41.520;23.794;2022-07-23T00:36:35;10.70;;;4.97;;
71814;SDS011;59659;41.520;23.794;2022-07-23T00:37:47;10.07;;;5.70;;
71814;SDS011;59659;41.520;23.794;2022-07-23T00:38:58;8.80;;;5.53;;
71814;SDS011;59659;41.520;23.794;2022-07-23T00:40:11;9.17;;;4.80;;
71814;SDS011;59659;41.520;23.794;2022-07-23T00:41:22;8.77;;;5.27;;
71814;SDS011;59659;41.520;23.794;2022-07-23T00:42:34;10.33;;;5.83;;
71814;SDS011;59659;41.520;23.794;2022-07-23T00:43:46;7.23;;;5.13;;
71814;SDS011;59659;41.520;23.794;2022-07-23T00:44:57;8.97;;;5.03;;
71814;SDS011;59659;41.520;23.794;2022-07-23T00:46:09;8.53;;;5.27;;
71814;SDS011;59659;41.520;23.794;2022-07-23T00:47:20;11.30;;;5.63;;
71814;SDS011;59659;41.520;23.794;2022-07-23T00:48:32;9.17;;;5.90;;
71814;SDS011;59659;41.520;23.794;2022-07-23T00:49:43;18.90;;;8.20;;
71814;SDS011;59659;41.520;23.794;2022-07-23T00:50:55;14.43;;;8.20;;
71814;SDS011;59659;41.520;23.794;2022-07-23T00:52:06;17.27;;;6.67;;
71814;SDS011;59659;41.520;23.794;2022-07-23T00:53:18;10.83;;;5.90;;
71814;SDS011;59659;41.520;23.794;2022-07-23T00:54:30;10.47;;;6.07;;
71814;SDS011;59659;41.520;23.794;2022-07-23T00:55:42;10.60;;;4.93;;
71814;SDS011;59659;41.520;23.794;2022-07-23T00:56:54;12.80;;;5.90;;
71814;SDS011;59659;41.520;23.794;2022-07-23T00:58:05;10.87;;;6.00;;
71814;SDS011;59659;41.520;23.794;2022-07-23T00:59:17;8.37;;;5.27;;
71814;SDS011;59659;41.520;23.794;2022-07-23T01:00:28;7.73;;;4.67;;
71814;SDS011;59659;41.520;23.794;2022-07-23T01:01:40;9.47;;;5.10;;
71814;SDS011;59659;41.520;23.794;2022-07-23T01:02:52;8.13;;;5.37;;
71814;SDS011;59659;41.520;23.794;2022-07-23T01:04:04;8.13;;;4.80;;
71814;SDS011;59659;41.520;23.794;2022-07-23T01:05:16;8.50;;;4.40;;
71814;SDS011;59659;41.520;23.794;2022-07-23T01:06:28;7.47;;;4.63;;
71814;SDS011;59659;41.520;23.794;2022-07-23T01:07:40;7.70;;;4.63;;
71814;SDS011;59659;41.520;23.794;2022-07-23T01:08:53;6.53;;;4.20;;
71814;SDS011;59659;41.520;23.794;2022-07-23T01:10:05;7.07;;;3.97;;
71814;SDS011;59659;41.520;23.794;2022-07-23T01:11:37;10.00;;;4.43;;
71814;SDS011;59659;41.520;23.794;2022-07-23T01:12:49;8.93;;;4.13;;
71814;SDS011;59659;41.520;23.794;2022-07-23T01:14:08;5.73;;;3.93;;
71814;SDS011;59659;41.520;23.794;2022-07-23T01:15:19;8.23;;;4.53;;
71814;SDS011;59659;41.520;23.794;2022-07-23T01:16:31;5.37;;;3.97;;
71814;SDS011;59659;41.520;23.794;2022-07-23T01:17:42;8.73;;;4.40;;
71814;SDS011;59659;41.520;23.794;2022-07-23T01:18:54;8.27;;;4.50;;
71814;SDS011;59659;41.520;23.794;2022-07-23T01:20:05;5.53;;;4.13;;
71814;SDS011;59659;41.520;23.794;2022-07-23T01:21:17;8.83;;;3.97;;
71814;SDS011;59659;41.520;23.794;2022-07-23T01:22:29;8.30;;;3.97;;
71814;SDS011;59659;41.520;23.794;2022-07-23T01:23:41;7.53;;;4.83;;
71814;SDS011;59659;41.520;23.794;2022-07-23T01:24:52;5.07;;;3.67;;
71814;SDS011;59659;41.520;23.794;2022-07-23T01:26:04;8.17;;;4.33;;
71814;SDS011;59659;41.520;23.794;2022-07-23T01:27:16;10.80;;;4.83;;
71814;SDS011;59659;41.520;23.794;2022-07-23T01:28:29;11.47;;;5.97;;
71814;SDS011;59659;41.520;23.794;2022-07-23T01:29:40;7.43;;;5.27;;
71814;SDS011;59659;41.520;23.794;2022-07-23T01:30:52;11.97;;;5.13;;
71814;SDS011;59659;41.520;23.794;2022-07-23T01:32:04;11.80;;;5.70;;
71814;SDS011;59659;41.520;23.794;2022-07-23T01:33:15;7.97;;;4.13;;
71814;SDS011;59659;41.520;23.794;2022-07-23T01:34:27;6.40;;;4.40;;
71814;SDS011;59659;41.520;23.794;2022-07-23T01:35:39;6.57;;;4.43;;
71814;SDS011;59659;41.520;23.794;2022-07-23T01:36:50;6.67;;;4.20;;
71814;SDS011;59659;41.520;23.794;2022-07-23T01:38:02;6.50;;;5.00;;
71814;SDS011;59659;41.520;23.794;2022-07-23T01:39:13;7.03;;;4.60;;
71814;SDS011;59659;41.520;23.794;2022-07-23T01:40:27;7.13;;;4.63;;
71814;SDS011;59659;41.520;23.794;2022-07-23T01:41:38;14.70;;;4.67;;
71814;SDS011;59659;41.520;23.794;2022-07-23T01:42:50;10.40;;;5.20;;
71814;SDS011;59659;41.520;23.794;2022-07-23T01:44:02;6.83;;;4.10;;
71814;SDS011;59659;41.520;23.794;2022-07-23T01:45:13;8.37;;;4.03;;
71814;SDS011;59659;41.520;23.794;2022-07-23T01:46:25;9.37;;;5.00;;
71814;SDS011;59659;41.520;23.794;2022-07-23T01:47:36;7.50;;;4.40;;
71814;SDS011;59659;41.520;23.794;2022-07-23T01:48:48;7.73;;;5.23;;
71814;SDS011;59659;41.520;23.794;2022-07-23T01:50:00;9.80;;;4.23;;
71814;SDS011;59659;41.520;23.794;2022-07-23T01:51:11;6.93;;;4.40;;
71814;SDS011;59659;41.520;23.794;2022-07-23T01:52:23;7.03;;;4.67;;
71814;SDS011;59659;41.520;23.794;2022-07-23T01:53:34;7.37;;;4.40;;
71814;SDS011;59659;41.520;23.794;2022-07-23T01:54:46;6.00;;;3.80;;
71814;SDS011;59659;41.520;23.794;2022-07-23T01:55:58;6.77;;;3.73;;
71814;SDS011;59659;41.520;23.794;2022-07-23T01:57:09;5.97;;;4.50;;
71814;SDS011;59659;41.520;23.794;2022-07-23T01:58:21;7.17;;;4.03;;
71814;SDS011;59659;41.520;23.794;2022-07-23T01:59:32;7.70;;;4.33;;
71814;SDS011;59659;41.520;23.794;2022-07-23T02:00:44;7.23;;;4.53;;
71814;SDS011;59659;41.520;23.794;2022-07-23T02:01:56;6.40;;;3.90;;
71814;SDS011;59659;41.520;23.794;2022-07-23T02:03:07;7.47;;;4.80;;
71814;SDS011;59659;41.520;23.794;2022-07-23T02:04:21;8.37;;;4.70;;
71814;SDS011;59659;41.520;23.794;2022-07-23T02:05:33;6.63;;;4.13;;
71814;SDS011;59659;41.520;23.794;2022-07-23T02:06:44;8.23;;;4.00;;
71814;SDS011;59659;41.520;23.794;2022-07-23T02:07:56;6.13;;;4.37;;
71814;SDS011;59659;41.520;23.794;2022-07-23T02:09:07;6.93;;;4.30;;
71814;SDS011;59659;41.520;23.794;2022-07-23T02:10:19;6.73;;;4.17;;
71814;SDS011;59659;41.520;23.794;2022-07-23T02:11:31;8.07;;;3.90;;
71814;SDS011;59659;41.520;23.794;2022-07-23T02:12:42;5.63;;;3.93;;
71814;SDS011;59659;41.520;23.794;2022-07-23T02:13:54;6.37;;;3.90;;
71814;SDS011;59659;41.520;23.794;2022-07-23T02:15:05;6.17;;;3.77;;
71814;SDS011;59659;41.520;23.794;2022-07-23T02:16:20;9.67;;;4.07;;
71814;SDS011;59659;41.520;23.794;2022-07-23T02:17:31;6.23;;;3.67;;
71814;SDS011;59659;41.520;23.794;2022-07-23T02:18:43;9.10;;;4.53;;
71814;SDS011;59659;41.520;23.794;2022-07-23T02:19:54;9.93;;;4.53;;
71814;SDS011;59659;41.520;23.794;2022-07-23T02:21:06;6.63;;;3.80;;
71814;SDS011;59659;41.520;23.794;2022-07-23T02:22:19;5.50;;;3.73;;
71814;SDS011;59659;41.520;23.794;2022-07-23T02:23:31;5.47;;;3.87;;
71814;SDS011;59659;41.520;23.794;2022-07-23T02:24:42;5.70;;;4.17;;
71814;SDS011;59659;41.520;23.794;2022-07-23T02:25:54;9.53;;;4.70;;
71814;SDS011;59659;41.520;23.794;2022-07-23T02:27:05;8.77;;;4.47;;
71814;SDS011;59659;41.520;23.794;2022-07-23T02:28:17;8.00;;;4.43;;
71814;SDS011;59659;41.520;23.794;2022-07-23T02:29:28;5.80;;;4.03;;
71814;SDS011;59659;41.520;23.794;2022-07-23T02:30:40;8.40;;;4.30;;
71814;SDS011;59659;41.520;23.794;2022-07-23T02:31:51;8.27;;;3.87;;
71814;SDS011;59659;41.520;23.794;2022-07-23T02:33:03;5.63;;;4.03;;
71814;SDS011;59659;41.520;23.794;2022-07-23T02:34:15;8.23;;;4.50;;
71814;SDS011;59659;41.520;23.794;2022-07-23T02:35:26;7.50;;;4.40;;
71814;SDS011;59659;41.520;23.794;2022-07-23T02:36:38;6.20;;;4.60;;
71814;SDS011;59659;41.520;23.794;2022-07-23T02:37:51;6.93;;;3.90;;
71814;SDS011;59659;41.520;23.794;2022-07-23T02:39:02;7.63;;;3.83;;
71814;SDS011;59659;41.520;23.794;2022-07-23T02:40:15;6.80;;;3.87;;
71814;SDS011;59659;41.520;23.794;2022-07-23T02:41:26;8.03;;;4.13;;
71814;SDS011;59659;41.520;23.794;2022-07-23T02:42:38;10.53;;;4.17;;
71814;SDS011;59659;41.520;23.794;2022-07-23T02:43:49;7.10;;;4.00;;
71814;SDS011;59659;41.520;23.794;2022-07-23T02:45:01;8.00;;;3.77;;
71814;SDS011;59659;41.520;23.794;2022-07-23T02:46:12;6.60;;;3.80;;
71814;SDS011;59659;41.520;23.794;2022-07-23T02:47:24;10.73;;;4.60;;
71814;SDS011;59659;41.520;23.794;2022-07-23T02:48:36;7.20;;;4.50;;
71814;SDS011;59659;41.520;23.794;2022-07-23T02:49:47;7.63;;;3.67;;
71814;SDS011;59659;41.520;23.794;2022-07-23T02:50:59;7.47;;;4.40;;
71814;SDS011;59659;41.520;23.794;2022-07-23T02:52:10;5.47;;;3.70;;
71814;SDS011;59659;41.520;23.794;2022-07-23T02:53:22;7.13;;;4.37;;
71814;SDS011;59659;41.520;23.794;2022-07-23T02:54:34;6.27;;;4.10;;
71814;SDS011;59659;41.520;23.794;2022-07-23T02:55:46;6.07;;;3.70;;
71814;SDS011;59659;41.520;23.794;2022-07-23T02:56:58;5.83;;;4.50;;
71814;SDS011;59659;41.520;23.794;2022-07-23T02:58:09;10.50;;;4.23;;
71814;SDS011;59659;41.520;23.794;2022-07-23T02:59:21;8.23;;;4.17;;
71814;SDS011;59659;41.520;23.794;2022-07-23T03:00:32;7.60;;;4.10;;
71814;SDS011;59659;41.520;23.794;2022-07-23T03:01:44;8.67;;;4.27;;
71814;SDS011;59659;41.520;23.794;2022-07-23T03:02:56;7.33;;;4.30;;
71814;SDS011;59659;41.520;23.794;2022-07-23T03:04:07;10.43;;;5.17;;
71814;SDS011;59659;41.520;23.794;2022-07-23T03:05:19;12.13;;;4.37;;
71814;SDS011;59659;41.520;23.794;2022-07-23T03:06:31;7.90;;;4.50;;
71814;SDS011;59659;41.520;23.794;2022-07-23T03:07:42;8.90;;;4.83;;
71814;SDS011;59659;41.520;23.794;2022-07-23T03:08:54;10.53;;;4.63;;
71814;SDS011;59659;41.520;23.794;2022-07-23T03:10:05;7.53;;;4.03;;
71814;SDS011;59659;41.520;23.794;2022-07-23T03:11:17;7.27;;;4.27;;
71814;SDS011;59659;41.520;23.794;2022-07-23T03:12:29;6.10;;;4.57;;
71814;SDS011;59659;41.520;23.794;2022-07-23T03:13:40;5.47;;;3.87;;
71814;SDS011;59659;41.520;23.794;2022-07-23T03:14:52;6.43;;;4.27;;
71814;SDS011;59659;41.520;23.794;2022-07-23T03:16:04;9.57;;;4.50;;
71814;SDS011;59659;41.520;23.794;2022-07-23T03:17:16;9.37;;;4.77;;
71814;SDS011;59659;41.520;23.794;2022-07-23T03:18:28;7.73;;;4.23;;
71814;SDS011;59659;41.520;23.794;2022-07-23T03:19:39;5.93;;;4.00;;
71814;SDS011;59659;41.520;23.794;2022-07-23T03:20:51;9.23;;;5.17;;
71814;SDS011;59659;41.520;23.794;2022-07-23T03:22:02;6.40;;;4.03;;
71814;SDS011;59659;41.520;23.794;2022-07-23T03:23:14;6.80;;;4.43;;
71814;SDS011;59659;41.520;23.794;2022-07-23T03:24:27;6.77;;;4.07;;
71814;SDS011;59659;41.520;23.794;2022-07-23T03:25:57;8.50;;;4.20;;
71814;SDS011;59659;41.520;23.794;2022-07-23T03:27:08;7.53;;;4.43;;
71814;SDS011;59659;41.520;23.794;2022-07-23T03:28:20;11.00;;;4.80;;
71814;SDS011;59659;41.520;23.794;2022-07-23T03:29:31;6.03;;;4.37;;
71814;SDS011;59659;41.520;23.794;2022-07-23T03:30:44;12.83;;;4.87;;
71814;SDS011;59659;41.520;23.794;2022-07-23T03:31:57;9.83;;;4.80;;
71814;SDS011;59659;41.520;23.794;2022-07-23T03:33:09;12.27;;;4.27;;
71814;SDS011;59659;41.520;23.794;2022-07-23T03:34:20;8.70;;;4.80;;
71814;SDS011;59659;41.520;23.794;2022-07-23T03:35:32;13.50;;;4.67;;
71814;SDS011;59659;41.520;23.794;2022-07-23T03:36:45;7.70;;;4.47;;
71814;SDS011;59659;41.520;23.794;2022-07-23T03:37:57;10.47;;;4.83;;
71814;SDS011;59659;41.520;23.794;2022-07-23T03:39:08;8.30;;;5.43;;
71814;SDS011;59659;41.520;23.794;2022-07-23T03:40:24;7.37;;;4.83;;
71814;SDS011;59659;41.520;23.794;2022-07-23T03:41:36;9.27;;;4.77;;
71814;SDS011;59659;41.520;23.794;2022-07-23T03:42:47;9.27;;;4.90;;
71814;SDS011;59659;41.520;23.794;2022-07-23T03:43:59;8.57;;;5.00;;
71814;SDS011;59659;41.520;23.794;2022-07-23T03:45:10;8.00;;;4.83;;
71814;SDS011;59659;41.520;23.794;2022-07-23T03:46:22;9.77;;;5.37;;
71814;SDS011;59659;41.520;23.794;2022-07-23T03:47:34;9.70;;;4.20;;
71814;SDS011;59659;41.520;23.794;2022-07-23T03:48:45;6.67;;;4.60;;
71814;SDS011;59659;41.520;23.794;2022-07-23T03:49:57;7.67;;;4.83;;
71814;SDS011;59659;41.520;23.794;2022-07-23T03:51:08;6.93;;;4.63;;
71814;SDS011;59659;41.520;23.794;2022-07-23T03:52:20;9.87;;;5.13;;
71814;SDS011;59659;41.520;23.794;2022-07-23T03:53:32;7.70;;;4.10;;
71814;SDS011;59659;41.520;23.794;2022-07-23T03:54:43;12.07;;;5.03;;
71814;SDS011;59659;41.520;23.794;2022-07-23T03:55:55;6.53;;;4.20;;
71814;SDS011;59659;41.520;23.794;2022-07-23T03:57:06;11.10;;;5.70;;
71814;SDS011;59659;41.520;23.794;2022-07-23T03:58:18;8.50;;;5.07;;
71814;SDS011;59659;41.520;23.794;2022-07-23T03:59:29;7.90;;;4.63;;
71814;SDS011;59659;41.520;23.794;2022-07-23T04:00:41;7.23;;;4.37;;
71814;SDS011;59659;41.520;23.794;2022-07-23T04:01:52;8.83;;;5.00;;
71814;SDS011;59659;41.520;23.794;2022-07-23T04:03:04;5.97;;;4.67;;
71814;SDS011;59659;41.520;23.794;2022-07-23T04:04:16;8.43;;;4.50;;
71814;SDS011;59659;41.520;23.794;2022-07-23T04:05:28;10.63;;;4.67;;
71814;SDS011;59659;41.520;23.794;2022-07-23T04:06:40;6.63;;;4.13;;
71814;SDS011;59659;41.520;23.794;2022-07-23T04:07:51;7.43;;;4.50;;
71814;SDS011;59659;41.520;23.794;2022-07-23T04:09:03;9.40;;;4.67;;
71814;SDS011;59659;41.520;23.794;2022-07-23T04:10:16;6.00;;;4.10;;
71814;SDS011;59659;41.520;23.794;2022-07-23T04:11:27;9.07;;;4.93;;
71814;SDS011;59659;41.520;23.794;2022-07-23T04:12:39;8.73;;;4.20;;
71814;SDS011;59659;41.520;23.794;2022-07-23T04:13:50;17.77;;;4.77;;
71814;SDS011;59659;41.520;23.794;2022-07-23T04:15:02;6.90;;;4.70;;
71814;SDS011;59659;41.520;23.794;2022-07-23T04:16:14;8.17;;;4.67;;
71814;SDS011;59659;41.520;23.794;2022-07-23T04:17:25;6.93;;;4.10;;
71814;SDS011;59659;41.520;23.794;2022-07-23T04:18:37;8.10;;;4.10;;
71814;SDS011;59659;41.520;23.794;2022-07-23T04:19:49;13.67;;;4.70;;
71814;SDS011;59659;41.520;23.794;2022-07-23T04:21:00;7.70;;;4.10;;
71814;SDS011;59659;41.520;23.794;2022-07-23T04:22:12;6.30;;;4.30;;
71814;SDS011;59659;41.520;23.794;2022-07-23T04:23:24;7.77;;;4.80;;
71814;SDS011;59659;41.520;23.794;2022-07-23T04:24:37;7.93;;;4.63;;
71814;SDS011;59659;41.520;23.794;2022-07-23T04:25:49;11.80;;;5.00;;
71814;SDS011;59659;41.520;23.794;2022-07-23T04:27:00;10.07;;;4.83;;
71814;SDS011;59659;41.520;23.794;2022-07-23T04:28:12;15.70;;;4.27;;
71814;SDS011;59659;41.520;23.794;2022-07-23T04:29:23;10.80;;;4.73;;
71814;SDS011;59659;41.520;23.794;2022-07-23T04:30:35;14.97;;;6.20;;
71814;SDS011;59659;41.520;23.794;2022-07-23T04:31:46;10.47;;;5.17;;
71814;SDS011;59659;41.520;23.794;2022-07-23T04:32:58;15.70;;;5.47;;
71814;SDS011;59659;41.520;23.794;2022-07-23T04:34:10;10.17;;;5.00;;
71814;SDS011;59659;41.520;23.794;2022-07-23T04:35:21;7.63;;;5.40;;
71814;SDS011;59659;41.520;23.794;2022-07-23T04:36:33;8.87;;;5.97;;
71814;SDS011;59659;41.520;23.794;2022-07-23T04:37:44;16.53;;;7.13;;
71814;SDS011;59659;41.520;23.794;2022-07-23T04:38:56;11.47;;;6.23;;
71814;SDS011;59659;41.520;23.794;2022-07-23T04:40:07;14.10;;;6.57;;
71814;SDS011;59659;41.520;23.794;2022-07-23T04:41:20;12.50;;;6.77;;
71814;SDS011;59659;41.520;23.794;2022-07-23T04:42:31;13.07;;;6.77;;
71814;SDS011;59659;41.520;23.794;2022-07-23T04:43:43;30.90;;;6.93;;
71814;SDS011;59659;41.520;23.794;2022-07-23T04:44:54;20.20;;;8.07;;
71814;SDS011;59659;41.520;23.794;2022-07-23T04:46:09;16.40;;;7.03;;
71814;SDS011;59659;41.520;23.794;2022-07-23T04:47:22;18.87;;;7.00;;
71814;SDS011;59659;41.520;23.794;2022-07-23T04:48:38;9.33;;;4.97;;
71814;SDS011;59659;41.520;23.794;2022-07-23T04:49:50;15.77;;;6.97;;
71814;SDS011;59659;41.520;23.794;2022-07-23T04:51:02;10.47;;;6.30;;
71814;SDS011;59659;41.520;23.794;2022-07-23T04:52:13;14.40;;;6.43;;
71814;SDS011;59659;41.520;23.794;2022-07-23T04:53:26;13.10;;;6.33;;
71814;SDS011;59659;41.520;23.794;2022-07-23T04:54:38;11.77;;;6.30;;
71814;SDS011;59659;41.520;23.794;2022-07-23T04:55:49;8.60;;;6.07;;
71814;SDS011;59659;41.520;23.794;2022-07-23T04:57:01;12.87;;;6.40;;
71814;SDS011;59659;41.520;23.794;2022-07-23T04:58:12;15.40;;;7.50;;
71814;SDS011;59659;41.520;23.794;2022-07-23T04:59:24;9.53;;;5.43;;
71814;SDS011;59659;41.520;23.794;2022-07-23T05:00:36;14.97;;;7.33;;
71814;SDS011;59659;41.520;23.794;2022-07-23T05:01:47;9.77;;;6.77;;
71814;SDS011;59659;41.520;23.794;2022-07-23T05:02:59;11.80;;;6.43;;
71814;SDS011;59659;41.520;23.794;2022-07-23T05:04:10;13.03;;;6.07;;
71814;SDS011;59659;41.520;23.794;2022-07-23T05:05:22;13.03;;;7.17;;
71814;SDS011;59659;41.520;23.794;2022-07-23T05:06:34;7.70;;;5.73;;
71814;SDS011;59659;41.520;23.794;2022-07-23T05:07:45;14.10;;;6.90;;
71814;SDS011;59659;41.520;23.794;2022-07-23T05:08:57;10.93;;;6.17;;
71814;SDS011;59659;41.520;23.794;2022-07-23T05:10:09;18.00;;;6.20;;
71814;SDS011;59659;41.520;23.794;2022-07-23T05:11:21;10.43;;;6.90;;
71814;SDS011;59659;41.520;23.794;2022-07-23T05:12:37;12.17;;;6.77;;
71814;SDS011;59659;41.520;23.794;2022-07-23T05:13:49;12.93;;;7.37;;
71814;SDS011;59659;41.520;23.794;2022-07-23T05:15:00;12.97;;;7.27;;
71814;SDS011;59659;41.520;23.794;2022-07-23T05:16:12;13.47;;;7.27;;
71814;SDS011;59659;41.520;23.794;2022-07-23T05:17:23;12.07;;;7.43;;
71814;SDS011;59659;41.520;23.794;2022-07-23T05:18:35;9.33;;;6.87;;
71814;SDS011;59659;41.520;23.794;2022-07-23T05:19:46;11.37;;;6.10;;
71814;SDS011;59659;41.520;23.794;2022-07-23T05:20:58;9.33;;;5.97;;
71814;SDS011;59659;41.520;23.794;2022-07-23T05:22:09;9.53;;;6.37;;
71814;SDS011;59659;41.520;23.794;2022-07-23T05:23:21;9.53;;;7.17;;
71814;SDS011;59659;41.520;23.794;2022-07-23T05:24:32;15.50;;;6.93;;
71814;SDS011;59659;41.520;23.794;2022-07-23T05:25:44;11.90;;;6.27;;
71814;SDS011;59659;41.520;23.794;2022-07-23T05:26:55;14.37;;;7.20;;
71814;SDS011;59659;41.520;23.794;2022-07-23T05:28:09;10.70;;;6.13;;
71814;SDS011;59659;41.520;23.794;2022-07-23T05:29:21;7.97;;;5.90;;
71814;SDS011;59659;41.520;23.794;2022-07-23T05:30:33;10.10;;;6.23;;
71814;SDS011;59659;41.520;23.794;2022-07-23T05:31:45;11.03;;;6.37;;
71814;SDS011;59659;41.520;23.794;2022-07-23T05:32:56;12.93;;;6.40;;
71814;SDS011;59659;41.520;23.794;2022-07-23T05:34:08;10.17;;;5.83;;
71814;SDS011;59659;41.520;23.794;2022-07-23T05:35:26;11.40;;;5.67;;
71814;SDS011;59659;41.520;23.794;2022-07-23T05:36:37;11.87;;;6.70;;
71814;SDS011;59659;41.520;23.794;2022-07-23T05:37:49;10.60;;;6.43;;
71814;SDS011;59659;41.520;23.794;2022-07-23T05:39:02;10.73;;;6.27;;
71814;SDS011;59659;41.520;23.794;2022-07-23T05:40:15;8.27;;;6.30;;
71814;SDS011;59659;41.520;23.794;2022-07-23T05:41:27;11.70;;;6.33;;
71814;SDS011;59659;41.520;23.794;2022-07-23T05:42:39;11.67;;;6.60;;
71814;SDS011;59659;41.520;23.794;2022-07-23T05:43:51;9.37;;;5.43;;
71814;SDS011;59659;41.520;23.794;2022-07-23T05:45:03;13.40;;;6.87;;
71814;SDS011;59659;41.520;23.794;2022-07-23T05:46:15;8.30;;;5.20;;
71814;SDS011;59659;41.520;23.794;2022-07-23T05:47:26;12.77;;;6.10;;
71814;SDS011;59659;41.520;23.794;2022-07-23T05:48:38;6.43;;;5.43;;
71814;SDS011;59659;41.520;23.794;2022-07-23T05:49:50;17.40;;;5.83;;
71814;SDS011;59659;41.520;23.794;2022-07-23T05:51:01;10.83;;;5.77;;
71814;SDS011;59659;41.520;23.794;2022-07-23T05:52:17;8.90;;;5.47;;
71814;SDS011;59659;41.520;23.794;2022-07-23T05:53:29;8.07;;;5.90;;
71814;SDS011;59659;41.520;23.794;2022-07-23T05:54:40;11.93;;;7.20;;
71814;SDS011;59659;41.520;23.794;2022-07-23T05:55:53;12.43;;;6.47;;
71814;SDS011;59659;41.520;23.794;2022-07-23T05:57:04;10.07;;;5.80;;
71814;SDS011;59659;41.520;23.794;2022-07-23T05:58:16;9.23;;;5.73;;
71814;SDS011;59659;41.520;23.794;2022-07-23T05:59:27;10.30;;;5.80;;
71814;SDS011;59659;41.520;23.794;2022-07-23T06:00:39;9.53;;;5.83;;
71814;SDS011;59659;41.520;23.794;2022-07-23T06:01:50;11.83;;;6.57;;
71814;SDS011;59659;41.520;23.794;2022-07-23T06:03:02;12.27;;;5.73;;
71814;SDS011;59659;41.520;23.794;2022-07-23T06:04:13;8.00;;;5.37;;
71814;SDS011;59659;41.520;23.794;2022-07-23T06:05:25;10.40;;;5.90;;
71814;SDS011;59659;41.520;23.794;2022-07-23T06:06:37;9.30;;;5.70;;
71814;SDS011;59659;41.520;23.794;2022-07-23T06:07:49;11.33;;;5.50;;
71814;SDS011;59659;41.520;23.794;2022-07-23T06:09:00;9.60;;;5.63;;
71814;SDS011;59659;41.520;23.794;2022-07-23T06:10:12;9.93;;;6.03;;
71814;SDS011;59659;41.520;23.794;2022-07-23T06:11:24;8.77;;;5.57;;
71814;SDS011;59659;41.520;23.794;2022-07-23T06:12:36;10.27;;;6.10;;
71814;SDS011;59659;41.520;23.794;2022-07-23T06:13:47;12.27;;;6.37;;
71814;SDS011;59659;41.520;23.794;2022-07-23T06:14:59;8.33;;;5.67;;
71814;SDS011;59659;41.520;23.794;2022-07-23T06:16:10;9.67;;;6.67;;
71814;SDS011;59659;41.520;23.794;2022-07-23T06:17:22;9.97;;;5.73;;
71814;SDS011;59659;41.520;23.794;2022-07-23T06:18:36;14.07;;;7.40;;
71814;SDS011;59659;41.520;23.794;2022-07-23T06:19:47;12.27;;;6.50;;
71814;SDS011;59659;41.520;23.794;2022-07-23T06:21:01;9.93;;;5.50;;
71814;SDS011;59659;41.520;23.794;2022-07-23T06:22:33;12.80;;;8.23;;
71814;SDS011;59659;41.520;23.794;2022-07-23T06:23:44;11.10;;;6.83;;
71814;SDS011;59659;41.520;23.794;2022-07-23T06:24:56;14.67;;;7.13;;
71814;SDS011;59659;41.520;23.794;2022-07-23T06:26:08;14.70;;;7.00;;
71814;SDS011;59659;41.520;23.794;2022-07-23T06:27:20;9.93;;;6.27;;
71814;SDS011;59659;41.520;23.794;2022-07-23T06:28:36;11.50;;;6.33;;
71814;SDS011;59659;41.520;23.794;2022-07-23T06:29:48;13.00;;;5.97;;
71814;SDS011;59659;41.520;23.794;2022-07-23T06:31:00;10.10;;;5.57;;
71814;SDS011;59659;41.520;23.794;2022-07-23T06:32:12;8.53;;;6.47;;
71814;SDS011;59659;41.520;23.794;2022-07-23T06:33:24;17.10;;;5.37;;
71814;SDS011;59659;41.520;23.794;2022-07-23T06:34:35;8.90;;;5.30;;
71814;SDS011;59659;41.520;23.794;2022-07-23T06:35:47;12.07;;;5.87;;
71814;SDS011;59659;41.520;23.794;2022-07-23T06:36:59;13.40;;;6.07;;
71814;SDS011;59659;41.520;23.794;2022-07-23T06:38:10;13.77;;;5.97;;
71814;SDS011;59659;41.520;23.794;2022-07-23T06:39:22;8.57;;;5.50;;
71814;SDS011;59659;41.520;23.794;2022-07-23T06:40:33;10.07;;;6.17;;
71814;SDS011;59659;41.520;23.794;2022-07-23T06:41:45;7.50;;;5.67;;
71814;SDS011;59659;41.520;23.794;2022-07-23T06:43:01;10.20;;;5.30;;
71814;SDS011;59659;41.520;23.794;2022-07-23T06:44:13;14.70;;;6.20;;
71814;SDS011;59659;41.520;23.794;2022-07-23T06:45:25;10.00;;;6.00;;
71814;SDS011;59659;41.520;23.794;2022-07-23T06:46:37;9.57;;;5.83;;
71814;SDS011;59659;41.520;23.794;2022-07-23T06:47:48;9.80;;;4.60;;
71814;SDS011;59659;41.520;23.794;2022-07-23T06:49:00;7.70;;;5.20;;
71814;SDS011;59659;41.520;23.794;2022-07-23T06:50:12;8.23;;;5.53;;
71814;SDS011;59659;41.520;23.794;2022-07-23T06:51:24;8.83;;;5.57;;
71814;SDS011;59659;41.520;23.794;2022-07-23T06:52:35;9.63;;;6.03;;
71814;SDS011;59659;41.520;23.794;2022-07-23T06:53:52;14.13;;;9.17;;
71814;SDS011;59659;41.520;23.794;2022-07-23T06:55:04;10.30;;;5.90;;
71814;SDS011;59659;41.520;23.794;2022-07-23T06:56:16;15.87;;;8.87;;
71814;SDS011;59659;41.520;23.794;2022-07-23T06:57:28;9.02;;;5.57;;
71814;SDS011;59659;41.520;23.794;2022-07-23T06:58:42;8.53;;;5.60;;
71814;SDS011;59659;41.520;23.794;2022-07-23T06:59:54;10.00;;;5.47;;
71814;SDS011;59659;41.520;23.794;2022-07-23T07:01:06;8.80;;;6.00;;
71814;SDS011;59659;41.520;23.794;2022-07-23T07:02:18;13.70;;;8.33;;
71814;SDS011;59659;41.520;23.794;2022-07-23T07:03:29;11.55;;;6.85;;
71814;SDS011;59659;41.520;23.794;2022-07-23T07:04:41;9.87;;;5.93;;